createdAt,value
2023-02-28T00:00:31.467Z,80.08
2023-02-28T00:03:24.412Z,79.78
2023-02-28T00:06:00.488Z,80.19
2023-02-28T00:08:33.693Z,80.47
2023-02-28T00:11:05.331Z,80.03
2023-02-28T00:13:40.718Z,80.14
2023-02-28T00:16:15.941Z,80.18
2023-02-28T00:18:48.917Z,80.29
2023-02-28T00:21:22.123Z,80.28
2023-02-28T00:23:54.200Z,80.67
2023-02-28T00:26:27.062Z,80.73
2023-02-28T00:28:59.973Z,80.51
2023-02-28T00:31:31.273Z,80.22
2023-02-28T00:34:04.337Z,81.00
2023-02-28T00:36:37.908Z,81.27
2023-02-28T00:39:10.728Z,80.68
2023-02-28T00:41:43.294Z,81.29
2023-02-28T00:44:16.136Z,81.04
2023-02-28T00:46:48.754Z,80.39
2023-02-28T00:49:21.648Z,80.42
2023-02-28T00:51:54.404Z,80.43
2023-02-28T00:54:26.922Z,80.37
2023-02-28T00:56:59.470Z,80.02
2023-02-28T00:59:30.489Z,80.32
2023-02-28T01:02:02.855Z,80.52
2023-02-28T01:04:33.723Z,80.25
2023-02-28T01:07:07.467Z,80.75
2023-02-28T01:09:40.280Z,80.75
2023-02-28T01:12:12.676Z,80.72
2023-02-28T01:14:45.002Z,80.69
2023-02-28T01:17:17.451Z,80.67
2023-02-28T01:19:50.439Z,81.13
2023-02-28T01:22:22.682Z,81.67
2023-02-28T01:24:55.167Z,81.43
2023-02-28T01:27:28.158Z,81.39
2023-02-28T01:30:01.265Z,81.80
2023-02-28T01:32:33.679Z,81.77
2023-02-28T01:35:07.193Z,81.97
2023-02-28T01:37:40.473Z,82.06
2023-02-28T01:40:15.906Z,81.99
2023-02-28T01:42:47.791Z,82.20
2023-02-28T01:45:24.733Z,81.73
2023-02-28T01:48:01.105Z,82.35
2023-02-28T01:50:37.204Z,82.60
2023-02-28T01:53:14.165Z,82.63
2023-02-28T01:55:50.647Z,82.37
2023-02-28T01:58:23.287Z,82.78
2023-02-28T02:00:53.895Z,83.23
2023-02-28T02:03:25.923Z,82.63
2023-02-28T02:05:56.786Z,82.75
2023-02-28T02:08:31.000Z,82.52
2023-02-28T02:11:04.399Z,82.81
2023-02-28T02:13:53.917Z,83.05
2023-02-28T02:16:43.532Z,82.62
2023-02-28T02:19:41.992Z,82.58
2023-02-28T02:22:45.593Z,82.24
2023-02-28T02:25:36.072Z,82.51
2023-02-28T02:28:49.517Z,82.40
2023-02-28T02:31:50.700Z,82.46
2023-02-28T02:34:43.495Z,82.88
2023-02-28T02:37:30.216Z,82.76
2023-02-28T02:40:11.661Z,82.97
2023-02-28T02:42:51.825Z,83.06
2023-02-28T02:45:28.343Z,83.29
2023-02-28T02:48:03.879Z,83.17
2023-02-28T02:50:42.970Z,82.89
2023-02-28T02:53:20.304Z,83.41
2023-02-28T02:55:56.328Z,83.39
2023-02-28T02:58:34.496Z,82.99
2023-02-28T03:01:11.299Z,83.29
2023-02-28T03:03:45.712Z,83.36
2023-02-28T03:06:18.766Z,82.83
2023-02-28T03:08:50.800Z,82.30
2023-02-28T03:11:23.394Z,82.44
2023-02-28T03:14:23.687Z,82.95
2023-02-28T03:17:13.820Z,83.08
2023-02-28T03:19:57.034Z,82.90
2023-02-28T03:22:53.644Z,82.48
2023-02-28T03:25:33.888Z,81.83
2023-02-28T03:28:10.929Z,82.03
2023-02-28T03:30:48.610Z,82.39
2023-02-28T03:33:25.294Z,82.42
2023-02-28T03:36:01.602Z,82.33
2023-02-28T03:38:37.468Z,82.45
2023-02-28T03:41:15.467Z,83.15
2023-02-28T03:43:53.254Z,82.82
2023-02-28T03:46:28.531Z,82.37
2023-02-28T03:49:07.937Z,82.47
2023-02-28T03:51:43.510Z,82.66
2023-02-28T03:54:19.840Z,81.69
2023-02-28T03:56:58.573Z,81.58
2023-02-28T03:59:34.891Z,81.80
2023-02-28T04:02:06.686Z,81.67
2023-02-28T04:04:38.602Z,81.74
2023-02-28T04:07:13.146Z,82.53
2023-02-28T04:09:45.112Z,82.47
2023-02-28T04:12:17.070Z,82.56
2023-02-28T04:14:48.792Z,82.75
2023-02-28T04:17:20.817Z,82.93
2023-02-28T04:19:52.506Z,82.94
2023-02-28T04:22:26.730Z,83.20
2023-02-28T04:24:58.692Z,83.26
2023-02-28T04:27:32.690Z,83.49
2023-02-28T04:30:04.887Z,83.89
2023-02-28T04:32:36.742Z,84.30
2023-02-28T04:35:12.299Z,84.31
2023-02-28T04:37:44.342Z,84.62
2023-02-28T04:40:16.552Z,84.60
2023-02-28T04:42:48.532Z,84.73
2023-02-28T04:45:20.294Z,84.63
2023-02-28T04:47:51.949Z,84.51
2023-02-28T04:50:23.683Z,84.04
2023-02-28T04:52:55.664Z,84.15
2023-02-28T04:55:27.408Z,84.42
2023-02-28T04:57:59.098Z,84.64
2023-02-28T05:00:30.843Z,84.84
2023-02-28T05:03:02.802Z,84.39
2023-02-28T05:05:35.259Z,83.96
2023-02-28T05:08:07.473Z,84.33
2023-02-28T05:10:40.246Z,84.38
2023-02-28T05:13:14.887Z,84.67
2023-02-28T05:15:46.730Z,84.29
2023-02-28T05:18:18.418Z,83.69
2023-02-28T05:20:50.400Z,82.98
2023-02-28T05:23:24.967Z,82.31
2023-02-28T05:25:57.394Z,82.60
2023-02-28T05:28:29.775Z,82.83
2023-02-28T05:31:01.769Z,82.89
2023-02-28T05:33:33.806Z,82.63
2023-02-28T05:36:06.331Z,82.90
2023-02-28T05:38:38.804Z,83.32
2023-02-28T05:41:12.214Z,83.76
2023-02-28T05:43:44.100Z,84.02
2023-02-28T05:46:16.870Z,84.47
2023-02-28T05:48:50.358Z,84.41
2023-02-28T05:51:22.087Z,84.74
2023-02-28T05:53:54.151Z,84.78
2023-02-28T05:56:25.855Z,84.84
2023-02-28T05:58:57.590Z,84.99
2023-02-28T06:01:37.428Z,85.15
2023-02-28T06:04:22.324Z,85.84
2023-02-28T06:07:02.592Z,86.15
2023-02-28T06:09:34.435Z,86.37
2023-02-28T06:12:10.680Z,86.02
2023-02-28T06:14:42.617Z,85.61
2023-02-28T06:17:14.488Z,85.07
2023-02-28T06:19:46.230Z,85.10
2023-02-28T06:22:17.967Z,84.92
2023-02-28T06:24:49.715Z,84.94
2023-02-28T06:27:21.517Z,85.04
2023-02-28T06:29:57.402Z,85.52
2023-02-28T06:32:29.140Z,85.16
2023-02-28T06:35:01.007Z,85.15
2023-02-28T06:37:33.975Z,85.37
2023-02-28T06:40:07.961Z,85.77
2023-02-28T06:42:39.661Z,84.90
2023-02-28T06:45:13.102Z,85.08
2023-02-28T06:47:45.228Z,84.89
2023-02-28T06:50:18.661Z,85.07
2023-02-28T06:52:54.832Z,85.35
2023-02-28T06:55:27.112Z,85.15
2023-02-28T06:57:59.307Z,85.19
2023-02-28T07:00:31.002Z,85.57
2023-02-28T07:03:02.742Z,85.31
2023-02-28T07:05:36.338Z,84.90
2023-02-28T07:08:09.253Z,84.73
2023-02-28T07:10:42.019Z,84.29
2023-02-28T07:13:14.088Z,84.07
2023-02-28T07:15:46.965Z,84.17
2023-02-28T07:18:18.832Z,84.02
2023-02-28T07:20:50.525Z,83.82
2023-02-28T07:23:22.364Z,84.01
2023-02-28T07:25:54.575Z,83.78
2023-02-28T07:28:26.370Z,84.15
2023-02-28T07:30:58.256Z,83.69
2023-02-28T07:33:30.027Z,83.17
2023-02-28T07:36:05.889Z,82.85
2023-02-28T07:38:39.333Z,82.98
2023-02-28T07:41:11.691Z,83.36
2023-02-28T07:43:43.648Z,83.10
2023-02-28T07:46:17.594Z,82.42
2023-02-28T07:48:49.503Z,81.63
2023-02-28T07:51:21.870Z,81.80
2023-02-28T07:53:53.827Z,81.75
2023-02-28T07:56:25.656Z,81.75
2023-02-28T07:58:57.639Z,81.77
2023-02-28T08:01:29.785Z,81.94
2023-02-28T08:04:01.785Z,81.72
2023-02-28T08:06:33.973Z,81.70
2023-02-28T08:09:06.189Z,81.72
2023-02-28T08:11:38.377Z,81.93
2023-02-28T08:14:10.155Z,81.87
2023-02-28T08:16:43.824Z,81.85
2023-02-28T08:19:15.996Z,81.09
2023-02-28T08:21:47.755Z,80.74
2023-02-28T08:24:19.559Z,80.44
2023-02-28T08:26:51.726Z,80.22
2023-02-28T08:29:24.224Z,79.97
2023-02-28T08:31:56.224Z,80.13
2023-02-28T08:34:28.372Z,80.03
2023-02-28T08:37:00.190Z,79.84
2023-02-28T08:39:32.216Z,79.63
2023-02-28T08:42:08.143Z,79.12
2023-02-28T08:44:41.508Z,79.05
2023-02-28T08:47:14.180Z,78.78
2023-02-28T08:49:46.199Z,79.34
2023-02-28T08:52:18.977Z,78.73
2023-02-28T08:54:51.212Z,77.68
2023-02-28T08:57:22.899Z,77.38
2023-02-28T08:59:54.661Z,77.76
2023-02-28T09:02:26.441Z,77.10
2023-02-28T09:04:59.019Z,76.86
2023-02-28T09:07:30.886Z,76.94
2023-02-28T09:10:02.627Z,76.73
2023-02-28T09:12:36.849Z,76.55
2023-02-28T09:15:11.174Z,76.17
2023-02-28T09:17:45.698Z,75.50
2023-02-28T09:20:19.188Z,74.97
2023-02-28T09:22:51.235Z,75.10
2023-02-28T09:25:23.038Z,74.93
2023-02-28T09:27:54.776Z,73.87
2023-02-28T09:30:26.585Z,73.99
2023-02-28T09:32:58.580Z,72.68
2023-02-28T09:35:31.620Z,70.68
2023-02-28T09:38:04.016Z,69.95
2023-02-28T09:40:39.529Z,69.37
2023-02-28T09:43:16.642Z,69.32
2023-02-28T09:45:53.799Z,69.18
2023-02-28T09:48:31.292Z,68.48
2023-02-28T09:51:08.281Z,68.20
2023-02-28T09:53:43.993Z,67.73
2023-02-28T09:56:27.420Z,67.78
2023-02-28T09:59:03.812Z,65.12
2023-02-28T10:01:41.468Z,63.50
2023-02-28T10:04:26.056Z,63.46
2023-02-28T10:06:58.791Z,63.14
2023-02-28T10:09:34.993Z,63.60
2023-02-28T10:12:11.664Z,63.71
2023-02-28T10:14:50.248Z,63.38
2023-02-28T10:17:27.195Z,63.87
2023-02-28T10:20:08.732Z,63.48
2023-02-28T10:22:50.460Z,61.45
2023-02-28T10:25:25.659Z,60.33
2023-02-28T10:28:03.821Z,61.03
2023-02-28T10:30:39.727Z,61.19
2023-02-28T10:33:21.207Z,61.30
2023-02-28T10:35:54.209Z,59.78
2023-02-28T10:38:28.408Z,60.41
2023-02-28T10:41:10.738Z,60.43
2023-02-28T10:43:45.844Z,58.22
2023-02-28T10:46:26.534Z,57.73
2023-02-28T10:49:08.312Z,57.03
2023-02-28T10:51:43.404Z,57.09
2023-02-28T10:54:22.765Z,56.49
2023-02-28T10:57:19.331Z,56.07
2023-02-28T10:59:55.892Z,57.13
2023-02-28T11:02:37.333Z,56.98
2023-02-28T11:05:28.325Z,56.53
2023-02-28T11:08:07.413Z,56.58
2023-02-28T11:10:39.507Z,54.92
2023-02-28T11:13:21.680Z,54.89
2023-02-28T11:15:59.401Z,54.62
2023-02-28T11:18:38.639Z,53.80
2023-02-28T11:21:11.965Z,52.81
2023-02-28T11:23:44.932Z,53.35
2023-02-28T11:26:18.409Z,52.58
2023-02-28T11:29:05.288Z,52.89
2023-02-28T11:31:36.992Z,52.55
2023-02-28T11:34:28.520Z,52.66
2023-02-28T11:37:05.818Z,52.19
2023-02-28T11:39:38.231Z,51.05
2023-02-28T11:42:24.980Z,51.64
2023-02-28T11:45:06.705Z,51.42
2023-02-28T11:47:46.710Z,52.37
2023-02-28T11:50:34.513Z,52.09
2023-02-28T11:53:16.560Z,51.41
2023-02-28T11:55:56.579Z,50.20
2023-02-28T11:58:40.854Z,51.47
2023-02-28T12:01:25.924Z,50.73
2023-02-28T12:04:12.960Z,49.86
2023-02-28T12:06:52.376Z,49.84
2023-02-28T12:09:43.486Z,49.38
2023-02-28T12:12:32.651Z,49.15
2023-02-28T12:15:18.914Z,48.94
2023-02-28T12:18:00.646Z,48.18
2023-02-28T12:20:40.291Z,48.37
2023-02-28T12:26:30.468Z,46.80
2023-02-28T12:29:11.671Z,47.55
2023-02-28T12:31:47.734Z,47.68
2023-02-28T12:34:25.435Z,45.89
2023-02-28T12:37:01.131Z,44.83
2023-02-28T12:39:49.451Z,45.09
2023-02-28T12:42:30.100Z,46.12
2023-02-28T12:45:04.073Z,45.96
2023-02-28T12:47:35.983Z,45.54
2023-02-28T12:50:12.746Z,44.27
2023-02-28T12:52:53.912Z,43.85
2023-02-28T12:55:35.629Z,45.56
2023-02-28T12:58:14.872Z,45.84
2023-02-28T13:01:11.106Z,45.25
2023-02-28T13:04:21.914Z,45.37
2023-02-28T13:07:15.585Z,45.71
2023-02-28T13:09:56.874Z,44.33
2023-02-28T13:12:29.802Z,46.25
2023-02-28T13:15:13.296Z,45.36
2023-02-28T13:17:50.490Z,44.91
2023-02-28T13:20:25.469Z,44.28
2023-02-28T13:22:59.174Z,45.24
2023-02-28T13:25:54.556Z,44.42
2023-02-28T13:29:10.015Z,45.36
2023-02-28T13:32:19.044Z,45.75
2023-02-28T13:35:31.236Z,46.78
2023-02-28T13:38:35.349Z,46.45
2023-02-28T13:41:48.662Z,46.58
2023-02-28T13:44:24.836Z,47.91
2023-02-28T13:47:30.733Z,46.77
2023-02-28T13:50:31.294Z,46.19
2023-02-28T13:53:34.326Z,45.57
2023-02-28T13:56:22.418Z,44.87
2023-02-28T13:59:03.081Z,45.38
2023-02-28T14:02:00.397Z,45.80
2023-02-28T14:05:04.494Z,47.16
2023-02-28T14:07:41.557Z,45.79
2023-02-28T14:10:27.684Z,45.39
2023-02-28T14:13:03.315Z,46.98
2023-02-28T14:15:57.291Z,47.73
2023-02-28T14:18:33.925Z,47.29
2023-02-28T14:21:18.626Z,46.53
2023-02-28T14:24:30.541Z,47.32
2023-02-28T14:27:17.468Z,46.86
2023-02-28T14:30:13.582Z,46.92
2023-02-28T14:32:53.241Z,46.83
2023-02-28T14:35:41.887Z,46.50
2023-02-28T14:38:22.230Z,46.61
2023-02-28T14:40:57.354Z,46.88
2023-02-28T14:43:30.291Z,46.86
2023-02-28T14:46:04.936Z,47.00
2023-02-28T14:48:39.317Z,46.33
2023-02-28T14:51:12.572Z,46.64
2023-02-28T14:53:45.510Z,45.85
2023-02-28T14:56:25.942Z,46.51
2023-02-28T14:58:59.372Z,46.22
2023-02-28T15:01:32.958Z,47.14
2023-02-28T15:04:07.401Z,47.75
2023-02-28T15:06:39.659Z,48.79
2023-02-28T15:09:16.553Z,49.46
2023-02-28T15:11:51.897Z,49.92
2023-02-28T15:14:24.849Z,48.92
2023-02-28T15:17:00.574Z,48.43
2023-02-28T15:19:34.840Z,48.57
2023-02-28T15:22:10.140Z,49.13
2023-02-28T15:24:48.707Z,49.31
2023-02-28T15:27:25.877Z,49.44
2023-02-28T15:30:02.075Z,48.98
2023-02-28T15:32:37.170Z,50.46
2023-02-28T15:35:29.651Z,49.75
2023-02-28T15:38:06.506Z,50.50
2023-02-28T15:40:43.209Z,50.86
2023-02-28T15:43:19.879Z,50.20
2023-02-28T15:45:54.507Z,50.93
2023-02-28T15:48:30.129Z,52.02
2023-02-28T15:51:08.382Z,52.00
2023-02-28T15:53:49.797Z,51.45
2023-02-28T15:56:28.092Z,53.22
2023-02-28T15:59:02.797Z,52.61
2023-02-28T16:01:36.624Z,53.26
2023-02-28T16:04:15.621Z,53.38
2023-02-28T16:07:13.084Z,53.75
2023-02-28T16:09:48.129Z,53.34
2023-02-28T16:12:20.287Z,53.38
2023-02-28T16:14:55.232Z,53.50
2023-02-28T16:17:29.730Z,53.25
2023-02-28T16:20:01.947Z,55.20
2023-02-28T16:22:34.021Z,54.93
2023-02-28T16:25:09.192Z,54.13
2023-02-28T16:27:46.029Z,55.33
2023-02-28T16:30:25.170Z,57.16
2023-02-28T16:33:00.831Z,57.24
2023-02-28T16:35:32.865Z,56.61
2023-02-28T16:38:04.754Z,57.06
2023-02-28T16:40:41.057Z,57.11
2023-02-28T16:43:22.105Z,56.30
2023-02-28T16:46:01.713Z,56.01
2023-02-28T16:48:35.745Z,56.74
2023-02-28T16:51:11.604Z,56.92
2023-02-28T16:53:45.185Z,56.68
2023-02-28T16:56:21.158Z,57.82
2023-02-28T16:59:01.418Z,57.24
2023-02-28T17:01:33.960Z,57.07
2023-02-28T17:04:04.956Z,56.21
2023-02-28T17:06:37.230Z,57.07
2023-02-28T17:09:16.148Z,56.88
2023-02-28T17:11:48.661Z,57.21
2023-02-28T17:14:21.999Z,56.70
2023-02-28T17:16:53.762Z,57.76
2023-02-28T17:19:32.590Z,57.64
2023-02-28T17:22:04.986Z,58.84
2023-02-28T17:24:36.714Z,59.92
2023-02-28T17:27:11.380Z,59.05
2023-02-28T17:29:43.663Z,59.40
2023-02-28T17:32:18.211Z,60.26
2023-02-28T17:34:50.502Z,59.55
2023-02-28T17:37:23.206Z,60.12
2023-02-28T17:39:55.299Z,60.95
2023-02-28T17:42:27.361Z,61.76
2023-02-28T17:44:59.047Z,62.39
2023-02-28T17:47:30.902Z,61.42
2023-02-28T17:50:03.099Z,61.31
2023-02-28T17:52:37.723Z,61.76
2023-02-28T17:55:11.574Z,61.80
2023-02-28T17:57:43.904Z,62.25
2023-02-28T18:00:19.822Z,62.77
2023-02-28T18:02:52.381Z,62.12
2023-02-28T18:05:23.165Z,62.73
2023-02-28T18:07:56.179Z,63.50
2023-02-28T18:10:28.431Z,64.74
2023-02-28T18:13:00.869Z,65.38
2023-02-28T18:15:32.889Z,65.68
2023-02-28T18:18:04.806Z,66.40
2023-02-28T18:20:37.138Z,66.69
2023-02-28T18:23:09.183Z,67.25
2023-02-28T18:25:42.602Z,66.86
2023-02-28T18:28:14.616Z,66.77
2023-02-28T18:30:46.435Z,67.93
2023-02-28T18:33:20.027Z,68.36
2023-02-28T18:35:59.393Z,68.21
2023-02-28T18:38:31.405Z,68.40
2023-02-28T18:41:05.465Z,67.86
2023-02-28T18:43:39.412Z,67.38
2023-02-28T18:46:12.937Z,68.78
2023-02-28T18:48:45.269Z,69.49
2023-02-28T18:51:20.604Z,69.65
2023-02-28T18:53:53.299Z,68.71
2023-02-28T18:56:26.969Z,68.96
2023-02-28T18:58:58.731Z,69.02
2023-02-28T19:01:32.574Z,68.65
2023-02-28T19:04:05.672Z,67.87
2023-02-28T19:06:38.214Z,68.39
2023-02-28T19:09:10.912Z,69.23
2023-02-28T19:11:41.152Z,70.15
2023-02-28T19:14:13.466Z,70.44
2023-02-28T19:16:47.141Z,70.75
2023-02-28T19:19:18.866Z,70.06
2023-02-28T19:21:50.555Z,69.34
2023-02-28T19:24:22.486Z,70.59
2023-02-28T19:26:54.420Z,71.47
2023-02-28T19:29:26.201Z,71.95
2023-02-28T19:31:58.773Z,72.81
2023-02-28T19:34:31.044Z,72.65
2023-02-28T19:37:02.916Z,72.21
2023-02-28T19:39:41.046Z,72.32
2023-02-28T19:42:14.383Z,72.14
2023-02-28T19:44:46.767Z,70.62
2023-02-28T19:47:18.858Z,72.33
2023-02-28T19:49:50.640Z,73.26
2023-02-28T19:52:22.865Z,74.00
2023-02-28T19:54:55.028Z,73.25
2023-02-28T19:57:27.118Z,72.64
2023-02-28T19:59:59.030Z,73.07
2023-02-28T20:02:30.847Z,74.59
2023-02-28T20:05:05.471Z,74.61
2023-02-28T20:07:37.755Z,74.43
2023-02-28T20:10:11.453Z,75.15
2023-02-28T20:12:43.099Z,75.98
2023-02-28T20:15:15.631Z,75.20
2023-02-28T20:17:47.323Z,75.30
2023-02-28T20:20:19.793Z,75.46
2023-02-28T20:22:51.795Z,76.60
2023-02-28T20:25:23.541Z,76.67
2023-02-28T20:27:55.347Z,75.59
2023-02-28T20:30:27.159Z,76.04
2023-02-28T20:32:58.973Z,76.13
2023-02-28T20:35:31.358Z,75.44
2023-02-28T20:38:03.218Z,76.23
2023-02-28T20:40:35.392Z,77.21
2023-02-28T20:43:07.491Z,81.42
2023-02-28T20:45:40.352Z,78.08
2023-02-28T20:48:12.706Z,77.68
2023-02-28T20:50:51.029Z,77.38
2023-02-28T20:53:24.106Z,78.04
2023-02-28T20:56:00.213Z,78.77
2023-02-28T20:58:34.747Z,78.68
2023-02-28T21:01:15.995Z,78.33
2023-02-28T21:03:50.331Z,77.55
2023-02-28T21:06:24.855Z,78.56
2023-02-28T21:08:58.266Z,79.15
2023-02-28T21:11:32.465Z,78.89
2023-02-28T21:14:06.165Z,78.50
2023-02-28T21:16:38.483Z,78.55
2023-02-28T21:19:10.556Z,78.85
2023-02-28T21:21:44.299Z,78.87
2023-02-28T21:24:18.500Z,78.59
2023-02-28T21:26:52.323Z,78.70
2023-02-28T21:29:24.246Z,79.01
2023-02-28T21:31:56.519Z,78.66
2023-02-28T21:34:28.400Z,78.49
2023-02-28T21:37:00.617Z,78.34
2023-02-28T21:39:32.373Z,78.12
2023-02-28T21:42:04.508Z,78.09
2023-02-28T21:44:36.287Z,78.21
2023-02-28T21:47:08.631Z,77.99
2023-02-28T21:49:40.418Z,78.75
2023-02-28T21:52:12.234Z,79.31
2023-02-28T21:54:44.788Z,80.22
2023-02-28T21:57:17.138Z,79.84
2023-02-28T21:59:49.072Z,80.31
2023-02-28T22:02:20.869Z,79.79
2023-02-28T22:04:53.443Z,80.25
2023-02-28T22:07:23.773Z,79.68
2023-02-28T22:09:55.595Z,79.75
2023-02-28T22:12:27.407Z,79.83
2023-02-28T22:14:59.462Z,78.40
2023-02-28T22:17:31.680Z,78.32
2023-02-28T22:20:04.322Z,79.14
2023-02-28T22:22:36.048Z,79.88
2023-02-28T22:25:10.690Z,78.54
2023-02-28T22:27:42.460Z,79.57
2023-02-28T22:30:15.544Z,79.64
2023-02-28T22:32:47.504Z,80.21
2023-02-28T22:35:20.693Z,80.02
2023-02-28T22:37:54.161Z,79.46
2023-02-28T22:40:26.001Z,78.81
2023-02-28T22:42:57.757Z,78.35
2023-02-28T22:45:29.490Z,78.27
2023-02-28T22:48:01.782Z,78.29
2023-02-28T22:50:34.121Z,78.83
2023-02-28T22:53:05.844Z,79.84
2023-02-28T22:55:37.731Z,79.24
2023-02-28T22:58:09.591Z,78.27
2023-02-28T23:00:41.659Z,78.72
2023-02-28T23:03:13.383Z,79.74
2023-02-28T23:05:45.323Z,80.26
2023-02-28T23:08:17.384Z,80.71
2023-02-28T23:10:49.307Z,81.69
2023-02-28T23:13:21.864Z,81.73
2023-02-28T23:15:53.540Z,81.17
2023-02-28T23:18:25.883Z,80.90
2023-02-28T23:21:00.838Z,80.51
2023-02-28T23:23:32.671Z,80.21
2023-02-28T23:26:09.370Z,79.96
2023-02-28T23:28:41.826Z,80.19
2023-02-28T23:31:14.300Z,81.29
2023-02-28T23:33:46.029Z,80.74
2023-02-28T23:36:18.509Z,80.35
2023-02-28T23:38:53.247Z,80.15
2023-02-28T23:41:25.692Z,79.56
2023-02-28T23:43:56.188Z,79.39
2023-02-28T23:46:28.025Z,80.17
2023-02-28T23:49:00.910Z,80.77
2023-02-28T23:51:32.720Z,81.97
2023-02-28T23:54:04.965Z,82.27
2023-02-28T23:56:37.006Z,82.04
2023-02-28T23:59:08.669Z,82.70
